Address 0xccc1dbfee8782bd2a20f3dedfef67cc20a41aa5d

 
 
Txn Hash Method
Block
From
To
Value [Txn Fee]
0xfd0d58360a18bcc10ef16804c5db16c460870260ae0ffcd3cb92aace4079697cTransfer Token116926602021-10-11 23:32:378 days 1 hr ago0xccc1dbfee8782bd2a20f3dedfef67cc20a41aa5dOUT 0x3772cc2daa8111973b532dd33391eced3c11fbe50 BNB0.007899795
0xfaeac812b7b582b086f97c7f15ca57e9a273b6939099336ee8c652b46bb6d9bcApprove116926572021-10-11 23:32:288 days 1 hr ago0xccc1dbfee8782bd2a20f3dedfef67cc20a41aa5dOUT Safemoon Protocol: SAFEMOON Token0 BNB0.00012518
0x2ea3bb35c33685ab87ff3bfd2576711d097b68501c9ae172add8148a046c496dApprove116926532021-10-11 23:32:168 days 1 hr ago0xccc1dbfee8782bd2a20f3dedfef67cc20a41aa5dOUT Safemoon Protocol: SAFEMOON Token0 BNB0.00022118
0x0616bd979b6b7f3d5fdd803195086f104571b48ba425b7bd1ddd2dc52d9940e0Claim Earn Divid...115775062021-10-07 22:38:2812 days 2 hrs ago0xccc1dbfee8782bd2a20f3dedfef67cc20a41aa5dOUT SafeAffinity: AFFINITY Token0 BNB0.001001635
0x67aced035c0a007151aa5032a98a6a33405b9e6e755a913241903405f54b46f8Claim Vault Divi...115643682021-10-07 11:40:4312 days 13 hrs ago0xccc1dbfee8782bd2a20f3dedfef67cc20a41aa5dOUT SafeAffinity: AFFINITY Token0 BNB0.00172862
0xf61857323c4e897126f7640a46ac0326113257393a85e1b3ff336c162c906574Claim Vault Divi...114548852021-10-03 16:17:5616 days 8 hrs ago0xccc1dbfee8782bd2a20f3dedfef67cc20a41aa5dOUT SafeAffinity: AFFINITY Token0 BNB0.00194844
0x3ed43e21422e3f6753c9a8ca4c4ad09f1350f50171563c35c318842798013157Enter Staking114302292021-10-02 19:37:3317 days 5 hrs ago0xccc1dbfee8782bd2a20f3dedfef67cc20a41aa5dOUT 0x7861791b67c85d7671e4dcf545e09f956f0980ff0 BNB0.01080734
0x66e4eea776bdd5e9493df1a2ec0bbe710d4a6342ea94c509be99a6cf09b00b8dApprove114302232021-10-02 19:37:1517 days 5 hrs ago0xccc1dbfee8782bd2a20f3dedfef67cc20a41aa5dOUT SafeEarn: SAFEARN Token0 BNB0.000220955
0x7dadd499f4d7e5dd2765ce46c5786bb60b0c72d37de603f446cbfc8672e3afa5Emergency Withdr...114278972021-10-02 17:38:5317 days 7 hrs ago0xccc1dbfee8782bd2a20f3dedfef67cc20a41aa5dOUT 0x35213a332e7d472cd26fba4683c7dd4df1cfb6950 BNB0.00482694
0x62e5345fa47a93939b8b55e7dde412f7df81458ca308f03b693792e58504886fEmergency Withdr...114275512021-10-02 17:21:2317 days 7 hrs ago0xccc1dbfee8782bd2a20f3dedfef67cc20a41aa5dOUT 0xbee55096444f005087260aa5e2deffa4d207f1e20 BNB0.000115305
0xc5e47a8e571d1bf36ba1add66c16b1b55fdb51e187a946a3a253f266126a34dcEmergency Withdr...114073142021-10-02 0:19:4218 days 47 mins ago0xccc1dbfee8782bd2a20f3dedfef67cc20a41aa5dOUT 0xbee55096444f005087260aa5e2deffa4d207f1e20 BNB0.000115305
0xfce127b68f6b8b164f243d52127c57d62d1a9a4894f8b50b633b6c1f98428746Enter Staking114010832021-10-01 19:02:4618 days 6 hrs ago0xccc1dbfee8782bd2a20f3dedfef67cc20a41aa5dOUT 0x08011acc75152b6b623f09e99be3a69535f7dd980 BNB0.00685839
0x89d5f85e95240bd6e0a3d715f4feece9b9b6d798154816437b3fdbbfdd64045eApprove114010752021-10-01 19:02:2218 days 6 hrs ago0xccc1dbfee8782bd2a20f3dedfef67cc20a41aa5dOUT SafeEarn: SAFEARN Token0 BNB0.000220955
0x70da773b583e13075c9ebe9af43efcbaa3fffc4ab098de7178d0e96d88f473acLeave Staking114008552021-10-01 18:50:5318 days 6 hrs ago0xccc1dbfee8782bd2a20f3dedfef67cc20a41aa5dOUT 0x452d71a921129b7cf5317cdda745860b218615a30 BNB0.012550485
0x36ed73f123ca1afa0f8ceb6870419dad2a2a4fd09395abc4c70d0b9662e7b747Claim Earn Divid...114008432021-10-01 18:50:1418 days 6 hrs ago0xccc1dbfee8782bd2a20f3dedfef67cc20a41aa5dOUT SafeAffinity: AFFINITY Token0 BNB0.004896585
0x1a91fbb6af9696e7d83e72d9b5eb1c07b91378d2fe76fd141dfd8bdcf4aa2bb2Claim Earn Divid...113686062021-09-30 15:40:4619 days 9 hrs ago0xccc1dbfee8782bd2a20f3dedfef67cc20a41aa5dOUT SafeAffinity: AFFINITY Token0 BNB0.004896585
0x57c5e9762ed30eb9da0653f267a9c1ddec8822fd0b6b4507d346a15015c632b6Claim Vault Divi...112963332021-09-28 2:49:2021 days 22 hrs ago0xccc1dbfee8782bd2a20f3dedfef67cc20a41aa5dOUT SafeAffinity: AFFINITY Token0 BNB0.004379431
0x0e20576e75fcf1a8e444ebad31a80d01c74ed4c869deca79fb3811941ba969b3Enter Staking110329882021-09-18 21:52:5231 days 3 hrs ago0xccc1dbfee8782bd2a20f3dedfef67cc20a41aa5dOUT 0x452d71a921129b7cf5317cdda745860b218615a30 BNB0.006858405
0x2b98e5952ec63a22bdce5bdf4cdec9f9bbd6266a10d626394dde201903103a51Approve110329742021-09-18 21:52:1031 days 3 hrs ago0xccc1dbfee8782bd2a20f3dedfef67cc20a41aa5dOUT SafeEarn: SAFEARN Token0 BNB0.000220955
0xa7e2bff94f86ab1be49203e6afd6a2583d17dca2b9da2e2cf91b9cefdbbbebf8Leave Staking110329702021-09-18 21:51:5831 days 3 hrs ago0xccc1dbfee8782bd2a20f3dedfef67cc20a41aa5dOUT 0x40d809a96be834f11b72366aecc6305c381871f10 BNB0.01637878
0x894edbfd2387bc56ead4449d7898768a0e2e84f80ec2f8e5bb16f62a7f14f808Enter Staking110148232021-09-18 6:41:3431 days 18 hrs ago0xccc1dbfee8782bd2a20f3dedfef67cc20a41aa5dOUT 0x40d809a96be834f11b72366aecc6305c381871f10 BNB0.0109278
0x1b5a8621a9893856899b6df3d66c0dee9ddd98320076059ce91ff1f68a606f86Approve110148012021-09-18 6:40:2831 days 18 hrs ago0xccc1dbfee8782bd2a20f3dedfef67cc20a41aa5dOUT SafeEarn: SAFEARN Token0 BNB0.000220955
0x37e3b5925a4e6aa4951c63758e85b85135780c52bd307591bdedb58c21a057c1Approve110147942021-09-18 6:40:0731 days 18 hrs ago0xccc1dbfee8782bd2a20f3dedfef67cc20a41aa5dOUT SafeEarn: SAFEARN Token0 BNB0.000220955
0x6046120cb1981ae68fed38acf36b730f8c667c00f36f1df16269cda3c32962a6Leave Staking110042732021-09-17 21:52:5232 days 3 hrs ago0xccc1dbfee8782bd2a20f3dedfef67cc20a41aa5dOUT 0xaca38cce5e371b4f093636412cfe6ba1e76e80df0 BNB0.014579885
0x348fcd0a75e43e519bcdea6821b67c6768a098576fa532868a90f26800e7bae5Leave Staking110042662021-09-17 21:52:3132 days 3 hrs ago0xccc1dbfee8782bd2a20f3dedfef67cc20a41aa5dOUT 0xad4c7ffae792331207b9cd24009ff55dd3e1b5480 BNB0.02137596
[ Download CSV Export 
Latest 1 internal transaction
Parent Txn Hash Block From To Value
0x70da773b583e13075c9ebe9af43efcbaa3fffc4ab098de7178d0e96d88f473ac114008552021-10-01 18:50:5318 days 6 hrs ago 0x452d71a921129b7cf5317cdda745860b218615a30xccc1dbfee8782bd2a20f3dedfef67cc20a41aa5d0.049053168155553175 BNB
[ Download CSV Export 
Loading

Contract Name:
0 BNB

Compiler Version
0

Optimization Enabled:
0 BNB

Other Settings:
-NA-
Block Transaction Gas Used Reward
Age Block Fee Address BC Fee Address Voting Power Jailed Incoming
Block Uncle Number Difficulty Gas Used Reward
Loading
Loading
Make sure to use the "Vote Down" button for any spammy posts, and the "Vote Up" for interesting conversations.